sensor_id;sensor_type;location;lat;lon;timestamp;P1;P2;P0
64114;PMS5003;62188;35.640;139.748;2023-11-21T00:01:02;5;4;
64114;PMS5003;62188;35.640;139.748;2023-11-21T00:03:27;5;5;
64114;PMS5003;62188;35.640;139.748;2023-11-21T00:05:53;8;7;
64114;PMS5003;62188;35.640;139.748;2023-11-21T00:08:19;7;5;
64114;PMS5003;62188;35.640;139.748;2023-11-21T00:10:44;5;4;
64114;PMS5003;62188;35.640;139.748;2023-11-21T00:13:09;7;4;
64114;PMS5003;62188;35.640;139.748;2023-11-21T00:15:35;4;3;
64114;PMS5003;62188;35.640;139.748;2023-11-21T00:18:00;6;5;
64114;PMS5003;62188;35.640;139.748;2023-11-21T00:20:26;3;3;
64114;PMS5003;62188;35.640;139.748;2023-11-21T00:22:51;3;3;
64114;PMS5003;62188;35.640;139.748;2023-11-21T00:25:17;6;5;
64114;PMS5003;62188;35.640;139.748;2023-11-21T00:27:42;6;5;
64114;PMS5003;62188;35.640;139.748;2023-11-21T00:30:08;4;3;
64114;PMS5003;62188;35.640;139.748;2023-11-21T00:32:38;4;3;
64114;PMS5003;62188;35.640;139.748;2023-11-21T00:34:58;4;4;
64114;PMS5003;62188;35.640;139.748;2023-11-21T00:37:24;5;5;
64114;PMS5003;62188;35.640;139.748;2023-11-21T00:39:49;6;6;
64114;PMS5003;62188;35.640;139.748;2023-11-21T00:42:15;8;7;
64114;PMS5003;62188;35.640;139.748;2023-11-21T00:44:41;7;7;
64114;PMS5003;62188;35.640;139.748;2023-11-21T00:47:06;6;6;
64114;PMS5003;62188;35.640;139.748;2023-11-21T00:49:31;7;5;
64114;PMS5003;62188;35.640;139.748;2023-11-21T00:51:57;7;6;
64114;PMS5003;62188;35.640;139.748;2023-11-21T00:54:23;5;5;
64114;PMS5003;62188;35.640;139.748;2023-11-21T00:56:48;6;6;
64114;PMS5003;62188;35.640;139.748;2023-11-21T00:59:13;8;8;
64114;PMS5003;62188;35.640;139.748;2023-11-21T01:01:39;9;8;
64114;PMS5003;62188;35.640;139.748;2023-11-21T01:04:05;8;8;
64114;PMS5003;62188;35.640;139.748;2023-11-21T01:06:30;9;8;
64114;PMS5003;62188;35.640;139.748;2023-11-21T01:08:55;6;6;
64114;PMS5003;62188;35.640;139.748;2023-11-21T01:11:21;8;6;
64114;PMS5003;62188;35.640;139.748;2023-11-21T01:13:46;8;7;
64114;PMS5003;62188;35.640;139.748;2023-11-21T01:16:12;7;7;
64114;PMS5003;62188;35.640;139.748;2023-11-21T01:18:37;6;6;
64114;PMS5003;62188;35.640;139.748;2023-11-21T01:21:03;8;8;
64114;PMS5003;62188;35.640;139.748;2023-11-21T01:23:29;6;6;
64114;PMS5003;62188;35.640;139.748;2023-11-21T01:25:55;8;8;
64114;PMS5003;62188;35.640;139.748;2023-11-21T01:28:19;7;7;
64114;PMS5003;62188;35.640;139.748;2023-11-21T01:30:45;8;8;
64114;PMS5003;62188;35.640;139.748;2023-11-21T01:33:11;10;9;
64114;PMS5003;62188;35.640;139.748;2023-11-21T01:35:36;9;8;
64114;PMS5003;62188;35.640;139.748;2023-11-21T01:38:02;9;9;
64114;PMS5003;62188;35.640;139.748;2023-11-21T01:40:27;10;9;
64114;PMS5003;62188;35.640;139.748;2023-11-21T01:42:53;9;8;
64114;PMS5003;62188;35.640;139.748;2023-11-21T01:45:18;12;9;
64114;PMS5003;62188;35.640;139.748;2023-11-21T01:47:44;8;8;
64114;PMS5003;62188;35.640;139.748;2023-11-21T01:50:09;9;9;
64114;PMS5003;62188;35.640;139.748;2023-11-21T01:52:36;10;8;
64114;PMS5003;62188;35.640;139.748;2023-11-21T01:55:00;9;9;
64114;PMS5003;62188;35.640;139.748;2023-11-21T01:57:26;13;11;
64114;PMS5003;62188;35.640;139.748;2023-11-21T01:59:51;10;10;
64114;PMS5003;62188;35.640;139.748;2023-11-21T02:02:17;13;13;
64114;PMS5003;62188;35.640;139.748;2023-11-21T02:04:42;10;10;
64114;PMS5003;62188;35.640;139.748;2023-11-21T02:07:08;9;9;
64114;PMS5003;62188;35.640;139.748;2023-11-21T02:09:33;11;10;
64114;PMS5003;62188;35.640;139.748;2023-11-21T02:11:59;13;10;
64114;PMS5003;62188;35.640;139.748;2023-11-21T02:14:24;11;10;
64114;PMS5003;62188;35.640;139.748;2023-11-21T02:16:50;10;9;
64114;PMS5003;62188;35.640;139.748;2023-11-21T02:19:17;13;11;
64114;PMS5003;62188;35.640;139.748;2023-11-21T02:21:40;11;11;
64114;PMS5003;62188;35.640;139.748;2023-11-21T02:24:11;12;11;
64114;PMS5003;62188;35.640;139.748;2023-11-21T02:26:31;10;8;
64114;PMS5003;62188;35.640;139.748;2023-11-21T02:28:57;10;10;
64114;PMS5003;62188;35.640;139.748;2023-11-21T02:31:22;11;10;
64114;PMS5003;62188;35.640;139.748;2023-11-21T02:33:48;10;10;
64114;PMS5003;62188;35.640;139.748;2023-11-21T02:36:13;12;12;
64114;PMS5003;62188;35.640;139.748;2023-11-21T02:38:38;11;10;
64114;PMS5003;62188;35.640;139.748;2023-11-21T02:41:04;10;10;
64114;PMS5003;62188;35.640;139.748;2023-11-21T02:43:29;10;10;
64114;PMS5003;62188;35.640;139.748;2023-11-21T02:45:55;10;10;
64114;PMS5003;62188;35.640;139.748;2023-11-21T02:48:20;12;12;
64114;PMS5003;62188;35.640;139.748;2023-11-21T02:50:46;14;12;
64114;PMS5003;62188;35.640;139.748;2023-11-21T02:53:11;13;12;
64114;PMS5003;62188;35.640;139.748;2023-11-21T02:55:36;12;12;
64114;PMS5003;62188;35.640;139.748;2023-11-21T02:58:02;14;13;
64114;PMS5003;62188;35.640;139.748;2023-11-21T03:00:28;15;14;
64114;PMS5003;62188;35.640;139.748;2023-11-21T03:02:53;11;11;
64114;PMS5003;62188;35.640;139.748;2023-11-21T03:05:18;17;15;
64114;PMS5003;62188;35.640;139.748;2023-11-21T03:07:44;16;14;
64114;PMS5003;62188;35.640;139.748;2023-11-21T03:10:09;13;12;
64114;PMS5003;62188;35.640;139.748;2023-11-21T03:12:35;13;13;
64114;PMS5003;62188;35.640;139.748;2023-11-21T03:15:00;16;15;
64114;PMS5003;62188;35.640;139.748;2023-11-21T03:17:25;16;15;
64114;PMS5003;62188;35.640;139.748;2023-11-21T03:19:50;15;13;
64114;PMS5003;62188;35.640;139.748;2023-11-21T03:22:16;14;14;
64114;PMS5003;62188;35.640;139.748;2023-11-21T03:24:41;15;15;
64114;PMS5003;62188;35.640;139.748;2023-11-21T03:27:07;19;17;
64114;PMS5003;62188;35.640;139.748;2023-11-21T03:29:32;17;17;
64114;PMS5003;62188;35.640;139.748;2023-11-21T03:31:57;19;19;
64114;PMS5003;62188;35.640;139.748;2023-11-21T03:34:24;19;17;
64114;PMS5003;62188;35.640;139.748;2023-11-21T03:36:48;19;17;
64114;PMS5003;62188;35.640;139.748;2023-11-21T03:39:14;20;18;
64114;PMS5003;62188;35.640;139.748;2023-11-21T03:41:39;22;21;
64114;PMS5003;62188;35.640;139.748;2023-11-21T03:44:05;23;23;
64114;PMS5003;62188;35.640;139.748;2023-11-21T03:46:31;28;26;
64114;PMS5003;62188;35.640;139.748;2023-11-21T03:48:57;24;23;
64114;PMS5003;62188;35.640;139.748;2023-11-21T03:51:24;23;22;
64114;PMS5003;62188;35.640;139.748;2023-11-21T03:53:48;23;21;
64114;PMS5003;62188;35.640;139.748;2023-11-21T03:56:14;19;18;
64114;PMS5003;62188;35.640;139.748;2023-11-21T03:58:38;19;19;
64114;PMS5003;62188;35.640;139.748;2023-11-21T04:01:04;18;18;
64114;PMS5003;62188;35.640;139.748;2023-11-21T04:03:29;22;21;
64114;PMS5003;62188;35.640;139.748;2023-11-21T04:05:55;19;18;
64114;PMS5003;62188;35.640;139.748;2023-11-21T04:08:21;23;20;
64114;PMS5003;62188;35.640;139.748;2023-11-21T04:10:46;19;17;
64114;PMS5003;62188;35.640;139.748;2023-11-21T04:13:12;21;21;
64114;PMS5003;62188;35.640;139.748;2023-11-21T04:15:36;19;19;
64114;PMS5003;62188;35.640;139.748;2023-11-21T04:18:02;22;22;
64114;PMS5003;62188;35.640;139.748;2023-11-21T04:20:27;21;21;
64114;PMS5003;62188;35.640;139.748;2023-11-21T04:22:53;23;23;
64114;PMS5003;62188;35.640;139.748;2023-11-21T04:25:18;19;19;
64114;PMS5003;62188;35.640;139.748;2023-11-21T04:27:44;23;23;
64114;PMS5003;62188;35.640;139.748;2023-11-21T04:30:09;20;20;
64114;PMS5003;62188;35.640;139.748;2023-11-21T04:32:35;27;24;
64114;PMS5003;62188;35.640;139.748;2023-11-21T04:35:00;24;23;
64114;PMS5003;62188;35.640;139.748;2023-11-21T04:37:25;23;21;
64114;PMS5003;62188;35.640;139.748;2023-11-21T04:39:51;25;23;
64114;PMS5003;62188;35.640;139.748;2023-11-21T04:42:16;24;24;
64114;PMS5003;62188;35.640;139.748;2023-11-21T04:44:42;25;24;
64114;PMS5003;62188;35.640;139.748;2023-11-21T04:47:08;26;25;
64114;PMS5003;62188;35.640;139.748;2023-11-21T04:49:32;26;23;
64114;PMS5003;62188;35.640;139.748;2023-11-21T04:51:58;27;26;
64114;PMS5003;62188;35.640;139.748;2023-11-21T04:54:23;26;25;
64114;PMS5003;62188;35.640;139.748;2023-11-21T04:56:48;31;27;
64114;PMS5003;62188;35.640;139.748;2023-11-21T04:59:14;33;31;
64114;PMS5003;62188;35.640;139.748;2023-11-21T05:01:41;32;29;
64114;PMS5003;62188;35.640;139.748;2023-11-21T05:04:06;32;31;
64114;PMS5003;62188;35.640;139.748;2023-11-21T05:06:31;30;28;
64114;PMS5003;62188;35.640;139.748;2023-11-21T05:08:58;31;29;
64114;PMS5003;62188;35.640;139.748;2023-11-21T05:11:24;32;30;
64114;PMS5003;62188;35.640;139.748;2023-11-21T05:13:48;34;33;
64114;PMS5003;62188;35.640;139.748;2023-11-21T05:16:13;33;30;
64114;PMS5003;62188;35.640;139.748;2023-11-21T05:18:39;35;35;
64114;PMS5003;62188;35.640;139.748;2023-11-21T05:21:05;32;31;
64114;PMS5003;62188;35.640;139.748;2023-11-21T05:23:30;27;25;
64114;PMS5003;62188;35.640;139.748;2023-11-21T05:25:56;31;29;
64114;PMS5003;62188;35.640;139.748;2023-11-21T05:28:21;28;27;
64114;PMS5003;62188;35.640;139.748;2023-11-21T05:30:46;30;27;
64114;PMS5003;62188;35.640;139.748;2023-11-21T05:33:12;28;27;
64114;PMS5003;62188;35.640;139.748;2023-11-21T05:35:37;29;27;
64114;PMS5003;62188;35.640;139.748;2023-11-21T05:38:02;27;24;
64114;PMS5003;62188;35.640;139.748;2023-11-21T05:40:28;33;29;
64114;PMS5003;62188;35.640;139.748;2023-11-21T05:42:53;30;29;
64114;PMS5003;62188;35.640;139.748;2023-11-21T05:45:18;24;23;
64114;PMS5003;62188;35.640;139.748;2023-11-21T05:47:44;26;26;
64114;PMS5003;62188;35.640;139.748;2023-11-21T05:50:18;26;25;
64114;PMS5003;62188;35.640;139.748;2023-11-21T05:52:36;30;27;
64114;PMS5003;62188;35.640;139.748;2023-11-21T05:55:01;24;21;
64114;PMS5003;62188;35.640;139.748;2023-11-21T05:57:26;19;18;
64114;PMS5003;62188;35.640;139.748;2023-11-21T05:59:52;17;17;
64114;PMS5003;62188;35.640;139.748;2023-11-21T06:02:17;20;19;
64114;PMS5003;62188;35.640;139.748;2023-11-21T06:04:42;15;14;
64114;PMS5003;62188;35.640;139.748;2023-11-21T06:07:08;18;17;
64114;PMS5003;62188;35.640;139.748;2023-11-21T06:09:33;15;14;
64114;PMS5003;62188;35.640;139.748;2023-11-21T06:11:59;13;12;
64114;PMS5003;62188;35.640;139.748;2023-11-21T06:14:24;9;9;
64114;PMS5003;62188;35.640;139.748;2023-11-21T06:16:50;12;10;
64114;PMS5003;62188;35.640;139.748;2023-11-21T06:19:15;9;8;
64114;PMS5003;62188;35.640;139.748;2023-11-21T06:21:40;10;9;
64114;PMS5003;62188;35.640;139.748;2023-11-21T06:24:06;10;9;
64114;PMS5003;62188;35.640;139.748;2023-11-21T06:26:31;14;14;
64114;PMS5003;62188;35.640;139.748;2023-11-21T06:28:57;10;10;
64114;PMS5003;62188;35.640;139.748;2023-11-21T06:31:22;9;9;
64114;PMS5003;62188;35.640;139.748;2023-11-21T06:33:48;11;11;
64114;PMS5003;62188;35.640;139.748;2023-11-21T06:36:14;10;10;
64114;PMS5003;62188;35.640;139.748;2023-11-21T06:38:38;8;7;
64114;PMS5003;62188;35.640;139.748;2023-11-21T06:41:04;7;7;
64114;PMS5003;62188;35.640;139.748;2023-11-21T06:43:30;8;7;
64114;PMS5003;62188;35.640;139.748;2023-11-21T06:45:55;7;7;
64114;PMS5003;62188;35.640;139.748;2023-11-21T06:48:21;8;8;
64114;PMS5003;62188;35.640;139.748;2023-11-21T06:50:46;8;8;
64114;PMS5003;62188;35.640;139.748;2023-11-21T06:53:18;8;8;
64114;PMS5003;62188;35.640;139.748;2023-11-21T06:55:37;9;9;
64114;PMS5003;62188;35.640;139.748;2023-11-21T06:58:03;9;8;
64114;PMS5003;62188;35.640;139.748;2023-11-21T07:00:28;10;10;
64114;PMS5003;62188;35.640;139.748;2023-11-21T07:02:55;13;12;
64114;PMS5003;62188;35.640;139.748;2023-11-21T07:05:19;10;10;
64114;PMS5003;62188;35.640;139.748;2023-11-21T07:07:44;11;11;
64114;PMS5003;62188;35.640;139.748;2023-11-21T07:10:10;13;12;
64114;PMS5003;62188;35.640;139.748;2023-11-21T07:12:36;10;10;
64114;PMS5003;62188;35.640;139.748;2023-11-21T07:15:01;13;11;
64114;PMS5003;62188;35.640;139.748;2023-11-21T07:17:27;11;11;
64114;PMS5003;62188;35.640;139.748;2023-11-21T07:19:53;12;11;
64114;PMS5003;62188;35.640;139.748;2023-11-21T07:22:18;10;10;
64114;PMS5003;62188;35.640;139.748;2023-11-21T07:24:48;12;11;
64114;PMS5003;62188;35.640;139.748;2023-11-21T07:27:09;14;13;
64114;PMS5003;62188;35.640;139.748;2023-11-21T07:29:35;10;9;
64114;PMS5003;62188;35.640;139.748;2023-11-21T07:32:00;10;9;
64114;PMS5003;62188;35.640;139.748;2023-11-21T07:34:28;12;12;
64114;PMS5003;62188;35.640;139.748;2023-11-21T07:36:51;11;11;
64114;PMS5003;62188;35.640;139.748;2023-11-21T07:39:17;12;10;
64114;PMS5003;62188;35.640;139.748;2023-11-21T07:41:42;12;11;
64114;PMS5003;62188;35.640;139.748;2023-11-21T07:44:08;12;12;
64114;PMS5003;62188;35.640;139.748;2023-11-21T07:46:33;11;11;
64114;PMS5003;62188;35.640;139.748;2023-11-21T07:48:59;11;10;
64114;PMS5003;62188;35.640;139.748;2023-11-21T07:51:24;11;11;
64114;PMS5003;62188;35.640;139.748;2023-11-21T07:53:50;15;14;
64114;PMS5003;62188;35.640;139.748;2023-11-21T07:56:15;13;12;
64114;PMS5003;62188;35.640;139.748;2023-11-21T07:58:42;11;11;
64114;PMS5003;62188;35.640;139.748;2023-11-21T08:01:07;14;14;
64114;PMS5003;62188;35.640;139.748;2023-11-21T08:03:32;15;14;
64114;PMS5003;62188;35.640;139.748;2023-11-21T08:05:59;13;13;
64114;PMS5003;62188;35.640;139.748;2023-11-21T08:08:23;12;12;
64114;PMS5003;62188;35.640;139.748;2023-11-21T08:10:48;12;11;
64114;PMS5003;62188;35.640;139.748;2023-11-21T08:13:14;16;14;
64114;PMS5003;62188;35.640;139.748;2023-11-21T08:15:39;14;12;
64114;PMS5003;62188;35.640;139.748;2023-11-21T08:18:05;16;14;
64114;PMS5003;62188;35.640;139.748;2023-11-21T08:20:30;14;13;
64114;PMS5003;62188;35.640;139.748;2023-11-21T08:22:56;13;13;
64114;PMS5003;62188;35.640;139.748;2023-11-21T08:25:22;15;15;
64114;PMS5003;62188;35.640;139.748;2023-11-21T08:27:47;14;13;
64114;PMS5003;62188;35.640;139.748;2023-11-21T08:30:12;14;13;
64114;PMS5003;62188;35.640;139.748;2023-11-21T08:32:39;13;13;
64114;PMS5003;62188;35.640;139.748;2023-11-21T08:35:03;14;13;
64114;PMS5003;62188;35.640;139.748;2023-11-21T08:37:29;15;14;
64114;PMS5003;62188;35.640;139.748;2023-11-21T08:39:54;15;13;
64114;PMS5003;62188;35.640;139.748;2023-11-21T08:42:20;13;12;
64114;PMS5003;62188;35.640;139.748;2023-11-21T08:44:46;16;15;
64114;PMS5003;62188;35.640;139.748;2023-11-21T08:47:11;14;14;
64114;PMS5003;62188;35.640;139.748;2023-11-21T08:49:36;12;12;
64114;PMS5003;62188;35.640;139.748;2023-11-21T08:52:02;13;12;
64114;PMS5003;62188;35.640;139.748;2023-11-21T08:54:27;13;13;
64114;PMS5003;62188;35.640;139.748;2023-11-21T08:56:53;11;11;
64114;PMS5003;62188;35.640;139.748;2023-11-21T08:59:18;15;14;
64114;PMS5003;62188;35.640;139.748;2023-11-21T09:01:43;17;16;
64114;PMS5003;62188;35.640;139.748;2023-11-21T09:04:09;13;12;
64114;PMS5003;62188;35.640;139.748;2023-11-21T09:06:34;16;13;
64114;PMS5003;62188;35.640;139.748;2023-11-21T09:08:59;14;12;
64114;PMS5003;62188;35.640;139.748;2023-11-21T09:11:25;12;11;
64114;PMS5003;62188;35.640;139.748;2023-11-21T09:13:50;12;11;
64114;PMS5003;62188;35.640;139.748;2023-11-21T09:16:16;13;13;
64114;PMS5003;62188;35.640;139.748;2023-11-21T09:18:42;14;14;
64114;PMS5003;62188;35.640;139.748;2023-11-21T09:21:08;12;12;
64114;PMS5003;62188;35.640;139.748;2023-11-21T09:23:32;13;13;
64114;PMS5003;62188;35.640;139.748;2023-11-21T09:25:58;15;13;
64114;PMS5003;62188;35.640;139.748;2023-11-21T09:28:23;12;12;
64114;PMS5003;62188;35.640;139.748;2023-11-21T09:30:48;12;12;
64114;PMS5003;62188;35.640;139.748;2023-11-21T09:33:14;14;13;
64114;PMS5003;62188;35.640;139.748;2023-11-21T09:35:39;15;15;
64114;PMS5003;62188;35.640;139.748;2023-11-21T09:38:04;16;16;
64114;PMS5003;62188;35.640;139.748;2023-11-21T09:40:30;18;18;
64114;PMS5003;62188;35.640;139.748;2023-11-21T09:42:55;18;17;
64114;PMS5003;62188;35.640;139.748;2023-11-21T09:45:23;16;15;
64114;PMS5003;62188;35.640;139.748;2023-11-21T09:47:47;15;15;
64114;PMS5003;62188;35.640;139.748;2023-11-21T09:50:12;14;14;
64114;PMS5003;62188;35.640;139.748;2023-11-21T09:52:40;14;13;
64114;PMS5003;62188;35.640;139.748;2023-11-21T09:55:03;17;15;
64114;PMS5003;62188;35.640;139.748;2023-11-21T09:57:29;15;14;
64114;PMS5003;62188;35.640;139.748;2023-11-21T09:59:54;21;20;
64114;PMS5003;62188;35.640;139.748;2023-11-21T10:02:19;27;24;
64114;PMS5003;62188;35.640;139.748;2023-11-21T10:04:45;23;23;
64114;PMS5003;62188;35.640;139.748;2023-11-21T10:07:10;23;22;
64114;PMS5003;62188;35.640;139.748;2023-11-21T10:09:36;14;14;
64114;PMS5003;62188;35.640;139.748;2023-11-21T10:12:02;21;21;
64114;PMS5003;62188;35.640;139.748;2023-11-21T10:14:27;26;23;
64114;PMS5003;62188;35.640;139.748;2023-11-21T10:16:53;26;22;
64114;PMS5003;62188;35.640;139.748;2023-11-21T10:19:18;26;24;
64114;PMS5003;62188;35.640;139.748;2023-11-21T10:21:43;25;23;
64114;PMS5003;62188;35.640;139.748;2023-11-21T10:24:09;25;23;
64114;PMS5003;62188;35.640;139.748;2023-11-21T10:26:34;26;23;
64114;PMS5003;62188;35.640;139.748;2023-11-21T10:29:00;22;22;
64114;PMS5003;62188;35.640;139.748;2023-11-21T10:31:27;22;21;
64114;PMS5003;62188;35.640;139.748;2023-11-21T10:33:51;18;17;
64114;PMS5003;62188;35.640;139.748;2023-11-21T10:38:42;19;18;
64114;PMS5003;62188;35.640;139.748;2023-11-21T10:41:10;19;19;
64114;PMS5003;62188;35.640;139.748;2023-11-21T10:43:33;20;18;
64114;PMS5003;62188;35.640;139.748;2023-11-21T10:45:58;20;16;
64114;PMS5003;62188;35.640;139.748;2023-11-21T10:48:23;15;15;
64114;PMS5003;62188;35.640;139.748;2023-11-21T10:50:49;18;17;
64114;PMS5003;62188;35.640;139.748;2023-11-21T10:53:15;26;25;
64114;PMS5003;62188;35.640;139.748;2023-11-21T10:55:41;28;27;
64114;PMS5003;62188;35.640;139.748;2023-11-21T10:58:06;28;27;
64114;PMS5003;62188;35.640;139.748;2023-11-21T11:00:32;25;24;
64114;PMS5003;62188;35.640;139.748;2023-11-21T11:02:57;31;30;
64114;PMS5003;62188;35.640;139.748;2023-11-21T11:05:24;88;81;
64114;PMS5003;62188;35.640;139.748;2023-11-21T11:07:50;48;44;
64114;PMS5003;62188;35.640;139.748;2023-11-21T11:10:14;137;126;
64114;PMS5003;62188;35.640;139.748;2023-11-21T11:12:40;177;158;
64114;PMS5003;62188;35.640;139.748;2023-11-21T11:15:06;313;275;
64114;PMS5003;62188;35.640;139.748;2023-11-21T11:17:31;46;42;
64114;PMS5003;62188;35.640;139.748;2023-11-21T11:19:56;39;37;
64114;PMS5003;62188;35.640;139.748;2023-11-21T11:22:28;39;36;
64114;PMS5003;62188;35.640;139.748;2023-11-21T11:24:51;46;44;
64114;PMS5003;62188;35.640;139.748;2023-11-21T11:27:18;52;43;
64114;PMS5003;62188;35.640;139.748;2023-11-21T11:29:40;48;44;
64114;PMS5003;62188;35.640;139.748;2023-11-21T11:32:06;58;52;
64114;PMS5003;62188;35.640;139.748;2023-11-21T11:34:30;48;47;
64114;PMS5003;62188;35.640;139.748;2023-11-21T11:36:57;44;43;
64114;PMS5003;62188;35.640;139.748;2023-11-21T11:39:29;47;46;
64114;PMS5003;62188;35.640;139.748;2023-11-21T11:41:46;48;45;
64114;PMS5003;62188;35.640;139.748;2023-11-21T11:46:41;45;42;
64114;PMS5003;62188;35.640;139.748;2023-11-21T11:49:02;44;41;
64114;PMS5003;62188;35.640;139.748;2023-11-21T11:51:28;46;44;
64114;PMS5003;62188;35.640;139.748;2023-11-21T11:53:53;39;38;
64114;PMS5003;62188;35.640;139.748;2023-11-21T11:56:23;40;38;
64114;PMS5003;62188;35.640;139.748;2023-11-21T11:58:44;38;37;
64114;PMS5003;62188;35.640;139.748;2023-11-21T12:01:11;43;41;
64114;PMS5003;62188;35.640;139.748;2023-11-21T12:03:36;38;34;
64114;PMS5003;62188;35.640;139.748;2023-11-21T12:06:01;35;31;
64114;PMS5003;62188;35.640;139.748;2023-11-21T12:08:28;38;33;
64114;PMS5003;62188;35.640;139.748;2023-11-21T12:10:52;36;34;
64114;PMS5003;62188;35.640;139.748;2023-11-21T12:13:18;28;26;
64114;PMS5003;62188;35.640;139.748;2023-11-21T12:15:44;26;26;
64114;PMS5003;62188;35.640;139.748;2023-11-21T12:18:10;33;32;
64114;PMS5003;62188;35.640;139.748;2023-11-21T12:20:35;31;31;
64114;PMS5003;62188;35.640;139.748;2023-11-21T12:23:01;33;30;
64114;PMS5003;62188;35.640;139.748;2023-11-21T12:25:27;39;36;
64114;PMS5003;62188;35.640;139.748;2023-11-21T12:27:52;44;41;
64114;PMS5003;62188;35.640;139.748;2023-11-21T12:30:17;39;38;
64114;PMS5003;62188;35.640;139.748;2023-11-21T12:32:42;36;34;
64114;PMS5003;62188;35.640;139.748;2023-11-21T12:35:08;35;35;
64114;PMS5003;62188;35.640;139.748;2023-11-21T12:37:33;34;31;
64114;PMS5003;62188;35.640;139.748;2023-11-21T12:39:59;35;33;
64114;PMS5003;62188;35.640;139.748;2023-11-21T12:42:25;40;38;
64114;PMS5003;62188;35.640;139.748;2023-11-21T12:47:17;36;34;
64114;PMS5003;62188;35.640;139.748;2023-11-21T12:49:42;34;33;
64114;PMS5003;62188;35.640;139.748;2023-11-21T12:52:07;42;42;
64114;PMS5003;62188;35.640;139.748;2023-11-21T12:54:32;35;34;
64114;PMS5003;62188;35.640;139.748;2023-11-21T12:56:59;31;31;
64114;PMS5003;62188;35.640;139.748;2023-11-21T12:59:24;32;31;
64114;PMS5003;62188;35.640;139.748;2023-11-21T13:01:49;35;32;
64114;PMS5003;62188;35.640;139.748;2023-11-21T13:04:14;33;33;
64114;PMS5003;62188;35.640;139.748;2023-11-21T13:06:40;33;33;
64114;PMS5003;62188;35.640;139.748;2023-11-21T13:09:15;43;38;
64114;PMS5003;62188;35.640;139.748;2023-11-21T13:11:34;35;32;
64114;PMS5003;62188;35.640;139.748;2023-11-21T13:13:57;32;30;
64114;PMS5003;62188;35.640;139.748;2023-11-21T13:16:22;34;33;
64114;PMS5003;62188;35.640;139.748;2023-11-21T13:18:48;28;28;
64114;PMS5003;62188;35.640;139.748;2023-11-21T13:21:14;33;32;
64114;PMS5003;62188;35.640;139.748;2023-11-21T13:23:39;35;33;
64114;PMS5003;62188;35.640;139.748;2023-11-21T13:26:05;31;28;
64114;PMS5003;62188;35.640;139.748;2023-11-21T13:28:31;31;30;
64114;PMS5003;62188;35.640;139.748;2023-11-21T13:30:56;31;30;
64114;PMS5003;62188;35.640;139.748;2023-11-21T13:33:21;27;26;
64114;PMS5003;62188;35.640;139.748;2023-11-21T13:35:47;25;23;
64114;PMS5003;62188;35.640;139.748;2023-11-21T13:38:13;27;26;
64114;PMS5003;62188;35.640;139.748;2023-11-21T13:40:38;27;23;
64114;PMS5003;62188;35.640;139.748;2023-11-21T13:43:03;23;22;
64114;PMS5003;62188;35.640;139.748;2023-11-21T13:45:29;28;24;
64114;PMS5003;62188;35.640;139.748;2023-11-21T13:47:56;30;29;
64114;PMS5003;62188;35.640;139.748;2023-11-21T13:50:20;27;26;
64114;PMS5003;62188;35.640;139.748;2023-11-21T13:52:46;26;23;
64114;PMS5003;62188;35.640;139.748;2023-11-21T13:55:11;23;22;
64114;PMS5003;62188;35.640;139.748;2023-11-21T13:57:37;22;22;
64114;PMS5003;62188;35.640;139.748;2023-11-21T14:00:02;23;22;
64114;PMS5003;62188;35.640;139.748;2023-11-21T14:02:27;26;25;
64114;PMS5003;62188;35.640;139.748;2023-11-21T14:04:53;24;23;
64114;PMS5003;62188;35.640;139.748;2023-11-21T14:07:18;27;27;
64114;PMS5003;62188;35.640;139.748;2023-11-21T14:09:43;27;27;
64114;PMS5003;62188;35.640;139.748;2023-11-21T14:12:09;29;26;
64114;PMS5003;62188;35.640;139.748;2023-11-21T14:14:34;27;26;
64114;PMS5003;62188;35.640;139.748;2023-11-21T14:16:59;32;29;
64114;PMS5003;62188;35.640;139.748;2023-11-21T14:19:25;27;22;
64114;PMS5003;62188;35.640;139.748;2023-11-21T14:21:50;30;28;
64114;PMS5003;62188;35.640;139.748;2023-11-21T14:24:15;28;27;
64114;PMS5003;62188;35.640;139.748;2023-11-21T14:26:41;28;27;
64114;PMS5003;62188;35.640;139.748;2023-11-21T14:29:06;30;27;
64114;PMS5003;62188;35.640;139.748;2023-11-21T14:31:31;29;27;
64114;PMS5003;62188;35.640;139.748;2023-11-21T14:33:57;33;32;
64114;PMS5003;62188;35.640;139.748;2023-11-21T14:36:22;31;30;
64114;PMS5003;62188;35.640;139.748;2023-11-21T14:38:47;34;29;
64114;PMS5003;62188;35.640;139.748;2023-11-21T14:41:12;29;28;
64114;PMS5003;62188;35.640;139.748;2023-11-21T14:43:39;29;28;
64114;PMS5003;62188;35.640;139.748;2023-11-21T14:46:05;30;28;
64114;PMS5003;62188;35.640;139.748;2023-11-21T14:48:30;29;28;
64114;PMS5003;62188;35.640;139.748;2023-11-21T14:50:55;29;29;
64114;PMS5003;62188;35.640;139.748;2023-11-21T14:53:21;28;27;
64114;PMS5003;62188;35.640;139.748;2023-11-21T14:55:47;30;28;
64114;PMS5003;62188;35.640;139.748;2023-11-21T14:58:12;31;30;
64114;PMS5003;62188;35.640;139.748;2023-11-21T15:00:38;38;34;
64114;PMS5003;62188;35.640;139.748;2023-11-21T15:03:03;37;34;
64114;PMS5003;62188;35.640;139.748;2023-11-21T15:05:28;40;38;
64114;PMS5003;62188;35.640;139.748;2023-11-21T15:07:53;39;35;
64114;PMS5003;62188;35.640;139.748;2023-11-21T15:10:18;37;36;
64114;PMS5003;62188;35.640;139.748;2023-11-21T15:12:44;33;32;
64114;PMS5003;62188;35.640;139.748;2023-11-21T15:15:09;34;32;
64114;PMS5003;62188;35.640;139.748;2023-11-21T15:17:34;37;34;
64114;PMS5003;62188;35.640;139.748;2023-11-21T15:19:59;36;35;
64114;PMS5003;62188;35.640;139.748;2023-11-21T15:22:25;33;29;
64114;PMS5003;62188;35.640;139.748;2023-11-21T15:24:51;29;29;
64114;PMS5003;62188;35.640;139.748;2023-11-21T15:27:16;33;30;
64114;PMS5003;62188;35.640;139.748;2023-11-21T15:29:42;28;26;
64114;PMS5003;62188;35.640;139.748;2023-11-21T15:32:07;25;23;
64114;PMS5003;62188;35.640;139.748;2023-11-21T15:34:33;26;25;
64114;PMS5003;62188;35.640;139.748;2023-11-21T15:36:58;26;25;
64114;PMS5003;62188;35.640;139.748;2023-11-21T15:39:23;28;27;
64114;PMS5003;62188;35.640;139.748;2023-11-21T15:41:49;30;29;
64114;PMS5003;62188;35.640;139.748;2023-11-21T15:44:14;27;26;
64114;PMS5003;62188;35.640;139.748;2023-11-21T15:46:39;27;25;